Thunderstorms From: 23-05-2018 15:04 Until: 24-05-2018 15:00 warning for: Thunderstorms Level: Yellow info button

Although rather usual in this region, locally or potentially dangerous phenomena are expected. (such as local winds, summer thunderstorms, rising streams or high waves) Be aware and pay attention to the latest weather updates, especially if you carry out activities exposed to weather or close to a stream or shoreline. 


Meteo18 Weather Cam more information Meteo18 Weather Cam


warning for Thunderstorms more information blitzortung!


Rain radar more information rain snow radar


Visit our other weather sites:

Template documentation
and downloads

And another site



Weather Underground History page Text

Daily Summary for January 19, 2018 Units:  Both    English   Metric
« Previous Day
Next Day »
Daily Weekly Monthly Yearly Custom
  High: Low: Average:
Temperature: TemperatureC °F /  -17.8 °C 2.8 °F /  -16.2 °C 5.3 °F /  -14.8 °C
Dew Point: DewpointC °F /  -17.8 °C 1.3 °F /  -17.1 °C 3.6 °F /  -15.8 °C
Humidity: Humidity % 80 % 88 %
Wind Speed: WindSpeedKMH mph /  0 km/h - 7.4 mph /  11.9 km/h
Wind Gust: WindSpeedGustKMH mph /  0 km/h - -
Wind:- - West
Pressure: PressurehPa in /  0 hPa 1012.8 in /  34293.4 hPa -
Precipitation: 2.3 in /  58.42 mm    
Historical Graphs
 
 
Tabular Data for January 19, 2018
Time Temperature Dew Point Pressure Wind Wind Speed Wind Gust Humidity Rainfall Rate (Hourly)
TemperatureC °F /  -17.8 °C DewpointC °F /  -17.8 °C PressurehPa in /  0 hPa Calm     Humidity % HourlyPrecipMM in /  0 mm
00:03 9.1 °F /  -12.7 °C 6.9 °F /  -13.9 °C 1012.8 in /  34293.4 hPa WSW 9.7 mph /  15.6 km/h 20.9 mph /  33.6 km/h 86 % 0.0 in /  0 mm
00:09 9.1 °F /  -12.7 °C 6.9 °F /  -13.9 °C 1012.8 in /  34293.4 hPa SW 19.5 mph /  31.4 km/h 22.5 mph /  36.2 km/h 86 % 0.0 in /  0 mm
00:15 9.0 °F /  -12.8 °C 7.0 °F /  -13.9 °C 1012.8 in /  34293.4 hPa WSW 6.4 mph /  10.3 km/h 20.9 mph /  33.6 km/h 87 % 0.0 in /  0 mm
00:21 8.9 °F /  -12.8 °C 7.0 °F /  -13.9 °C 1012.8 in /  34293.4 hPa West 22.7 mph /  36.5 km/h 24.1 mph /  38.8 km/h 88 % 0.0 in /  0 mm
00:27 8.9 °F /  -12.8 °C 6.9 °F /  -13.9 °C 1012.8 in /  34293.4 hPa WSW 13.0 mph /  20.9 km/h 20.9 mph /  33.6 km/h 87 % 0.0 in /  0 mm
00:33 8.9 °F /  -12.8 °C 6.9 °F /  -13.9 °C 1012.8 in /  34293.4 hPa WSW 16.3 mph /  26.2 km/h 22.5 mph /  36.2 km/h 87 % 0.0 in /  0 mm
00:39 8.8 °F /  -12.9 °C 6.8 °F /  -14 °C 1013.1 in /  34303.6 hPa WNW 14.3 mph /  23 km/h 20.9 mph /  33.6 km/h 87 % 0.0 in /  0 mm
00:45 8.8 °F /  -12.9 °C 6.8 °F /  -14 °C 1013.1 in /  34303.6 hPa SSW 4.7 mph /  7.6 km/h 22.5 mph /  36.2 km/h 87 % 0.0 in /  0 mm
00:51 8.7 °F /  -12.9 °C 6.8 °F /  -14 °C 1013.1 in /  34303.6 hPa West 24.1 mph /  38.8 km/h 32.2 mph /  51.8 km/h 88 % 0.0 in /  0 mm
00:57 8.6 °F /  -13 °C 6.7 °F /  -14.1 °C 1013.1 in /  34303.6 hPa NW 11.1 mph /  17.9 km/h 16.1 mph /  25.9 km/h 88 % 0.0 in /  0 mm
01:03 7.8 °F /  -13.4 °C 5.4 °F /  -14.8 °C 1013.4 in /  34313.7 hPa WNW 9.7 mph /  15.6 km/h 40.2 mph /  64.7 km/h 85 % 0.3 in /  7.62 mm
01:09 7.2 °F /  -13.8 °C 5.0 °F /  -15 °C 1013.4 in /  34313.7 hPa WNW 16.3 mph /  26.2 km/h 30.6 mph /  49.2 km/h 86 % 0.3 in /  7.62 mm
01:15 7.0 °F /  -13.9 °C 5.0 °F /  -15 °C 1013.4 in /  34313.7 hPa WNW 20.9 mph /  33.6 km/h 22.5 mph /  36.2 km/h 87 % 0.3 in /  7.62 mm
01:21 7.1 °F /  -13.8 °C 5.1 °F /  -14.9 °C 1013.1 in /  34303.6 hPa West 14.3 mph /  23 km/h 14.5 mph /  23.3 km/h 87 % 0.5 in /  12.7 mm
01:27 7.1 °F /  -13.8 °C 5.1 °F /  -14.9 °C 1013.1 in /  34303.6 hPa WNW 7.9 mph /  12.7 km/h 14.5 mph /  23.3 km/h 87 % 0.5 in /  12.7 mm
01:33 7.1 °F /  -13.8 °C 4.9 °F /  -15.1 °C 1013.1 in /  34303.6 hPa West 11.1 mph /  17.9 km/h 17.7 mph /  28.5 km/h 86 % 0.5 in /  12.7 mm
01:39 7.1 °F /  -13.8 °C 4.9 °F /  -15.1 °C 1013.1 in /  34303.6 hPa West 9.7 mph /  15.6 km/h 17.7 mph /  28.5 km/h 86 % 0.5 in /  12.7 mm
01:45 7.1 °F /  -13.8 °C 4.7 °F /  -15.2 °C 1013.4 in /  34313.7 hPa WNW 17.7 mph /  28.5 km/h 20.9 mph /  33.6 km/h 85 % 0.5 in /  12.7 mm
01:51 7.2 °F /  -13.8 °C 4.7 °F /  -15.2 °C 1013.4 in /  34313.7 hPa WSW 16.3 mph /  26.2 km/h 22.5 mph /  36.2 km/h 84 % 0.5 in /  12.7 mm
01:57 7.2 °F /  -13.8 °C 4.7 °F /  -15.2 °C 1013.4 in /  34313.7 hPa WNW 7.9 mph /  12.7 km/h 22.5 mph /  36.2 km/h 84 % 0.5 in /  12.7 mm
02:03 7.2 °F /  -13.8 °C 4.8 °F /  -15.1 °C 1013.4 in /  34313.7 hPa West 4.7 mph /  7.6 km/h 14.5 mph /  23.3 km/h 85 % 0.3 in /  7.62 mm
02:09 7.1 °F /  -13.8 °C 4.7 °F /  -15.2 °C 1013.4 in /  34313.7 hPa West 14.3 mph /  23 km/h 16.1 mph /  25.9 km/h 85 % 0.3 in /  7.62 mm
02:15 7.1 °F /  -13.8 °C 4.7 °F /  -15.2 °C 1013.8 in /  34327.3 hPa WNW 7.9 mph /  12.7 km/h 17.7 mph /  28.5 km/h 85 % 0.3 in /  7.62 mm
02:21 7.1 °F /  -13.8 °C 4.9 °F /  -15.1 °C 1013.8 in /  34327.3 hPa WNW 6.4 mph /  10.3 km/h 12.9 mph /  20.8 km/h 86 % 0.0 in /  0 mm
02:27 7.1 °F /  -13.8 °C 4.7 °F /  -15.2 °C 1013.8 in /  34327.3 hPa West 9.7 mph /  15.6 km/h 14.5 mph /  23.3 km/h 85 % 0.0 in /  0 mm
02:33 7.1 °F /  -13.8 °C 4.7 °F /  -15.2 °C 1013.8 in /  34327.3 hPa WNW 6.4 mph /  10.3 km/h 11.3 mph /  18.2 km/h 85 % 0.0 in /  0 mm
02:39 7.1 °F /  -13.8 °C 4.9 °F /  -15.1 °C 1013.8 in /  34327.3 hPa West 3.2 mph /  5.1 km/h 14.5 mph /  23.3 km/h 86 % 0.0 in /  0 mm
02:45 7.1 °F /  -13.8 °C 4.9 °F /  -15.1 °C 1014.1 in /  34337.4 hPa WNW 9.7 mph /  15.6 km/h 12.9 mph /  20.8 km/h 86 % 0.0 in /  0 mm
02:51 7.0 °F /  -13.9 °C 5.0 °F /  -15 °C 1014.1 in /  34337.4 hPa West 6.4 mph /  10.3 km/h 12.9 mph /  20.8 km/h 87 % 0.0 in /  0 mm
02:57 6.9 °F /  -13.9 °C 4.9 °F /  -15.1 °C 1014.1 in /  34337.4 hPa NW 4.7 mph /  7.6 km/h 12.9 mph /  20.8 km/h 87 % 0.0 in /  0 mm
03:03 6.9 °F /  -13.9 °C 4.9 °F /  -15.1 °C 1014.1 in /  34337.4 hPa West 3.2 mph /  5.1 km/h 8.0 mph /  12.9 km/h 87 % 0.0 in /  0 mm
03:09 6.9 °F /  -13.9 °C 4.9 °F /  -15.1 °C 1014.4 in /  34347.6 hPa WNW 11.1 mph /  17.9 km/h 11.3 mph /  18.2 km/h 87 % 0.0 in /  0 mm
03:15 6.8 °F /  -14 °C 4.8 °F /  -15.1 °C 1014.4 in /  34347.6 hPa West 4.7 mph /  7.6 km/h 8.0 mph /  12.9 km/h 87 % 0.0 in /  0 mm
03:21 6.8 °F /  -14 °C 4.6 °F /  -15.2 °C 1014.4 in /  34347.6 hPa WNW 9.7 mph /  15.6 km/h 12.9 mph /  20.8 km/h 86 % 0.0 in /  0 mm
03:27 6.9 °F /  -13.9 °C 4.7 °F /  -15.2 °C 1014.4 in /  34347.6 hPa West 6.4 mph /  10.3 km/h 12.9 mph /  20.8 km/h 86 % 0.0 in /  0 mm
03:33 6.8 °F /  -14 °C 4.6 °F /  -15.2 °C 1014.4 in /  34347.6 hPa West 4.7 mph /  7.6 km/h 12.9 mph /  20.8 km/h 86 % 0.0 in /  0 mm
03:39 6.8 °F /  -14 °C 4.6 °F /  -15.2 °C 1014.4 in /  34347.6 hPa WSW 4.7 mph /  7.6 km/h 6.4 mph /  10.3 km/h 86 % 0.0 in /  0 mm
03:45 6.7 °F /  -14.1 °C 4.7 °F /  -15.2 °C 1014.8 in /  34361.1 hPa West 16.3 mph /  26.2 km/h 16.3 mph /  26.2 km/h 87 % 0.0 in /  0 mm
03:51 6.1 °F /  -14.4 °C 3.9 °F /  -15.6 °C 1014.4 in /  34347.6 hPa WNW 9.7 mph /  15.6 km/h 19.3 mph /  31.1 km/h 86 % 0.3 in /  7.62 mm
03:57 5.9 °F /  -14.5 °C 4.1 °F /  -15.5 °C 1014.4 in /  34347.6 hPa West 6.4 mph /  10.3 km/h 14.5 mph /  23.3 km/h 88 % 0.5 in /  12.7 mm
04:03 5.9 °F /  -14.5 °C 4.2 °F /  -15.4 °C 1014.4 in /  34347.6 hPa WSW 3.2 mph /  5.1 km/h 6.4 mph /  10.3 km/h 89 % 0.5 in /  12.7 mm
04:09 5.9 °F /  -14.5 °C 4.4 °F /  -15.3 °C 1014.4 in /  34347.6 hPa WSW 7.9 mph /  12.7 km/h 8.0 mph /  12.9 km/h 90 % 0.5 in /  12.7 mm
04:15 6.2 °F /  -14.3 °C 4.7 °F /  -15.2 °C 1014.4 in /  34347.6 hPa West 13.0 mph /  20.9 km/h 14.5 mph /  23.3 km/h 90 % 0.5 in /  12.7 mm
04:21 6.3 °F /  -14.3 °C 4.6 °F /  -15.2 °C 1014.4 in /  34347.6 hPa West 13.0 mph /  20.9 km/h 13.0 mph /  20.9 km/h 89 % 0.5 in /  12.7 mm
04:27 6.4 °F /  -14.2 °C 4.7 °F /  -15.2 °C 1014.4 in /  34347.6 hPa West 3.2 mph /  5.1 km/h 11.3 mph /  18.2 km/h 89 % 0.5 in /  12.7 mm
04:33 6.3 °F /  -14.3 °C 4.6 °F /  -15.2 °C 1014.4 in /  34347.6 hPa WNW 6.4 mph /  10.3 km/h 11.3 mph /  18.2 km/h 89 % 0.5 in /  12.7 mm
04:39 6.2 °F /  -14.3 °C 4.7 °F /  -15.2 °C 1014.4 in /  34347.6 hPa North 3.2 mph /  5.1 km/h 9.7 mph /  15.6 km/h 90 % 0.5 in /  12.7 mm
04:45 6.2 °F /  -14.3 °C 4.7 °F /  -15.2 °C 1014.4 in /  34347.6 hPa West 4.7 mph /  7.6 km/h 9.7 mph /  15.6 km/h 90 % 0.5 in /  12.7 mm
04:52 6.1 °F /  -14.4 °C 4.4 °F /  -15.3 °C 1014.8 in /  34361.1 hPa WNW 4.7 mph /  7.6 km/h 6.4 mph /  10.3 km/h 89 % 0.5 in /  12.7 mm
04:58 6.0 °F /  -14.4 °C 4.5 °F /  -15.3 °C 1014.8 in /  34361.1 hPa West 3.2 mph /  5.1 km/h 8.0 mph /  12.9 km/h 90 % 0.0 in /  0 mm
05:04 6.1 °F /  -14.4 °C 4.4 °F /  -15.3 °C 1014.8 in /  34361.1 hPa WNW 4.7 mph /  7.6 km/h 16.1 mph /  25.9 km/h 89 % 0.0 in /  0 mm
05:10 6.1 °F /  -14.4 °C 4.4 °F /  -15.3 °C 1014.8 in /  34361.1 hPa West 6.4 mph /  10.3 km/h 11.3 mph /  18.2 km/h 89 % 0.0 in /  0 mm
05:16 6.1 °F /  -14.4 °C 4.3 °F /  -15.4 °C 1014.8 in /  34361.1 hPa West 4.7 mph /  7.6 km/h 19.3 mph /  31.1 km/h 88 % 0.0 in /  0 mm
05:22 6.0 °F /  -14.4 °C 4.3 °F /  -15.4 °C 1014.8 in /  34361.1 hPa West 11.1 mph /  17.9 km/h 11.3 mph /  18.2 km/h 89 % 0.0 in /  0 mm
05:28 6.0 °F /  -14.4 °C 4.3 °F /  -15.4 °C 1014.8 in /  34361.1 hPa West 7.9 mph /  12.7 km/h 12.9 mph /  20.8 km/h 89 % 0.0 in /  0 mm
05:34 5.9 °F /  -14.5 °C 4.2 °F /  -15.4 °C 1014.8 in /  34361.1 hPa West 6.4 mph /  10.3 km/h 11.3 mph /  18.2 km/h 89 % 0.0 in /  0 mm
05:40 5.8 °F /  -14.6 °C 4.1 °F /  -15.5 °C 1014.8 in /  34361.1 hPa West 6.4 mph /  10.3 km/h 16.1 mph /  25.9 km/h 89 % 0.0 in /  0 mm
05:46 5.8 °F /  -14.6 °C 4.1 °F /  -15.5 °C 1014.8 in /  34361.1 hPa West 11.1 mph /  17.9 km/h 11.3 mph /  18.2 km/h 89 % 0.0 in /  0 mm
05:52 5.7 °F /  -14.6 °C 4.0 °F /  -15.6 °C 1014.8 in /  34361.1 hPa WNW 7.9 mph /  12.7 km/h 14.5 mph /  23.3 km/h 89 % 0.0 in /  0 mm
05:58 5.7 °F /  -14.6 °C 3.9 °F /  -15.6 °C 1014.8 in /  34361.1 hPa West 6.4 mph /  10.3 km/h 8.0 mph /  12.9 km/h 88 % 0.0 in /  0 mm
06:04 5.7 °F /  -14.6 °C 4.0 °F /  -15.6 °C 1015.1 in /  34371.3 hPa WNW 6.4 mph /  10.3 km/h 11.3 mph /  18.2 km/h 89 % 0.0 in /  0 mm
06:10 5.7 °F /  -14.6 °C 4.0 °F /  -15.6 °C 1015.1 in /  34371.3 hPa WNW 7.9 mph /  12.7 km/h 11.3 mph /  18.2 km/h 89 % 0.0 in /  0 mm
06:16 5.7 °F /  -14.6 °C 4.0 °F /  -15.6 °C 1015.1 in /  34371.3 hPa WSW 13.0 mph /  20.9 km/h 13.0 mph /  20.9 km/h 89 % 0.0 in /  0 mm
06:22 5.7 °F /  -14.6 °C 4.0 °F /  -15.6 °C 1015.1 in /  34371.3 hPa West 4.7 mph /  7.6 km/h 8.0 mph /  12.9 km/h 89 % 0.0 in /  0 mm
06:28 5.7 °F /  -14.6 °C 4.0 °F /  -15.6 °C 1015.1 in /  34371.3 hPa West 4.7 mph /  7.6 km/h 11.3 mph /  18.2 km/h 89 % 0.0 in /  0 mm
06:34 5.6 °F /  -14.7 °C 4.1 °F /  -15.5 °C 1015.1 in /  34371.3 hPa West 4.7 mph /  7.6 km/h 9.7 mph /  15.6 km/h 90 % 0.0 in /  0 mm
06:40 5.6 °F /  -14.7 °C 4.1 °F /  -15.5 °C 1015.1 in /  34371.3 hPa WSW 11.1 mph /  17.9 km/h 16.1 mph /  25.9 km/h 90 % 0.0 in /  0 mm
06:46 5.6 °F /  -14.7 °C 4.1 °F /  -15.5 °C 1015.1 in /  34371.3 hPa WNW 7.9 mph /  12.7 km/h 16.1 mph /  25.9 km/h 90 % 0.0 in /  0 mm
06:52 5.4 °F /  -14.8 °C 3.9 °F /  -15.6 °C 1015.1 in /  34371.3 hPa West 6.4 mph /  10.3 km/h 9.7 mph /  15.6 km/h 90 % 0.0 in /  0 mm
06:58 5.4 °F /  -14.8 °C 3.9 °F /  -15.6 °C 1015.1 in /  34371.3 hPa West 13.0 mph /  20.9 km/h 13.0 mph /  20.9 km/h 90 % 0.0 in /  0 mm
07:04 5.3 °F /  -14.8 °C 3.8 °F /  -15.7 °C 1015.1 in /  34371.3 hPa West 3.2 mph /  5.1 km/h 9.7 mph /  15.6 km/h 90 % 0.0 in /  0 mm
07:10 5.3 °F /  -14.8 °C 3.8 °F /  -15.7 °C 1015.1 in /  34371.3 hPa West 9.7 mph /  15.6 km/h 16.1 mph /  25.9 km/h 90 % 0.0 in /  0 mm
07:16 5.2 °F /  -14.9 °C 3.7 °F /  -15.7 °C 1015.1 in /  34371.3 hPa West 14.3 mph /  23 km/h 14.5 mph /  23.3 km/h 90 % 0.0 in /  0 mm
07:22 5.1 °F /  -14.9 °C 3.8 °F /  -15.7 °C 1015.1 in /  34371.3 hPa WNW 6.4 mph /  10.3 km/h 12.9 mph /  20.8 km/h 91 % 0.0 in /  0 mm
07:28 5.0 °F /  -15 °C 3.7 °F /  -15.7 °C 1015.1 in /  34371.3 hPa West 6.4 mph /  10.3 km/h 11.3 mph /  18.2 km/h 91 % 0.0 in /  0 mm
07:34 4.9 °F /  -15.1 °C 3.6 °F /  -15.8 °C 1015.5 in /  34384.8 hPa West 4.7 mph /  7.6 km/h 8.0 mph /  12.9 km/h 91 % 0.0 in /  0 mm
07:40 4.8 °F /  -15.1 °C 3.5 °F /  -15.8 °C 1015.5 in /  34384.8 hPa WSW 7.9 mph /  12.7 km/h 9.7 mph /  15.6 km/h 91 % 0.0 in /  0 mm
07:46 4.6 °F /  -15.2 °C 3.4 °F /  -15.9 °C 1015.5 in /  34384.8 hPa West 6.4 mph /  10.3 km/h 8.0 mph /  12.9 km/h 92 % 0.0 in /  0 mm
07:52 4.4 °F /  -15.3 °C 3.2 °F /  -16 °C 1015.5 in /  34384.8 hPa WSW 3.2 mph /  5.1 km/h 8.0 mph /  12.9 km/h 92 % 0.0 in /  0 mm
07:58 4.3 °F /  -15.4 °C 3.1 °F /  -16.1 °C 1015.5 in /  34384.8 hPa West 1.4 mph /  2.3 km/h 6.4 mph /  10.3 km/h 92 % 0.0 in /  0 mm
08:04 4.2 °F /  -15.4 °C 3.0 °F /  -16.1 °C 1015.5 in /  34384.8 hPa West 4.7 mph /  7.6 km/h 4.8 mph /  7.7 km/h 92 % 0.0 in /  0 mm
08:10 4.2 °F /  -15.4 °C 3.0 °F /  -16.1 °C 1015.5 in /  34384.8 hPa West 4.7 mph /  7.6 km/h 6.4 mph /  10.3 km/h 92 % 0.0 in /  0 mm
08:16 4.1 °F /  -15.5 °C 3.1 °F /  -16.1 °C 1015.5 in /  34384.8 hPa WSW 1.4 mph /  2.3 km/h 4.8 mph /  7.7 km/h 93 % 0.0 in /  0 mm
08:22 3.9 °F /  -15.6 °C 2.9 °F /  -16.2 °C 1015.5 in /  34384.8 hPa SW 3.2 mph /  5.1 km/h 4.8 mph /  7.7 km/h 93 % 0.0 in /  0 mm
08:28 3.8 °F /  -15.7 °C 2.8 °F /  -16.2 °C 1015.5 in /  34384.8 hPa SSW 3.2 mph /  5.1 km/h 8.0 mph /  12.9 km/h 93 % 0.0 in /  0 mm
08:34 3.6 °F /  -15.8 °C 2.7 °F /  -16.3 °C 1015.5 in /  34384.8 hPa WSW 1.4 mph /  2.3 km/h 4.8 mph /  7.7 km/h 94 % 0.0 in /  0 mm
08:40 3.6 °F /  -15.8 °C 2.7 °F /  -16.3 °C 1015.5 in /  34384.8 hPa WSW 3.2 mph /  5.1 km/h 4.8 mph /  7.7 km/h 94 % 0.0 in /  0 mm
08:46 3.6 °F /  -15.8 °C 2.7 °F /  -16.3 °C 1015.8 in /  34395 hPa WSW 4.7 mph /  7.6 km/h 6.4 mph /  10.3 km/h 94 % 0.0 in /  0 mm
08:52 3.6 °F /  -15.8 °C 2.7 °F /  -16.3 °C 1015.8 in /  34395 hPa WSW 3.2 mph /  5.1 km/h 4.8 mph /  7.7 km/h 94 % 0.0 in /  0 mm
08:58 3.7 °F /  -15.7 °C 3.0 °F /  -16.1 °C 1015.8 in /  34395 hPa WSW 1.4 mph /  2.3 km/h 6.4 mph /  10.3 km/h 95 % 0.0 in /  0 mm
09:04 3.7 °F /  -15.7 °C 2.8 °F /  -16.2 °C 1015.8 in /  34395 hPa WSW 1.4 mph /  2.3 km/h 4.8 mph /  7.7 km/h 94 % 0.0 in /  0 mm
09:10 3.7 °F /  -15.7 °C 2.8 °F /  -16.2 °C 1016.1 in /  34405.1 hPa WSW 1.4 mph /  2.3 km/h 4.8 mph /  7.7 km/h 94 % 0.0 in /  0 mm
09:16 3.7 °F /  -15.7 °C 3.0 °F /  -16.1 °C 1016.1 in /  34405.1 hPa WSW 1.4 mph /  2.3 km/h 6.4 mph /  10.3 km/h 95 % 0.0 in /  0 mm
09:22 3.7 °F /  -15.7 °C 3.0 °F /  -16.1 °C 1016.1 in /  34405.1 hPa WSW 6.4 mph /  10.3 km/h 6.4 mph /  10.3 km/h 95 % 0.0 in /  0 mm
09:28 3.8 °F /  -15.7 °C 3.1 °F /  -16.1 °C 1016.1 in /  34405.1 hPa WSW 6.4 mph /  10.3 km/h 8.0 mph /  12.9 km/h 95 % 0.0 in /  0 mm
09:34 3.8 °F /  -15.7 °C 3.1 °F /  -16.1 °C 1015.8 in /  34395 hPa SW 4.7 mph /  7.6 km/h 8.0 mph /  12.9 km/h 95 % 0.0 in /  0 mm
09:40 3.9 °F /  -15.6 °C 3.2 °F /  -16 °C 1016.1 in /  34405.1 hPa SW 7.9 mph /  12.7 km/h 9.7 mph /  15.6 km/h 95 % 0.0 in /  0 mm
09:46 4.0 °F /  -15.6 °C 3.3 °F /  -15.9 °C 1016.1 in /  34405.1 hPa SW 7.9 mph /  12.7 km/h 12.9 mph /  20.8 km/h 95 % 0.0 in /  0 mm
09:52 4.1 °F /  -15.5 °C 3.4 °F /  -15.9 °C 1016.1 in /  34405.1 hPa SW 7.9 mph /  12.7 km/h 19.3 mph /  31.1 km/h 95 % 0.0 in /  0 mm
09:58 4.2 °F /  -15.4 °C 3.3 °F /  -15.9 °C 1016.1 in /  34405.1 hPa SW 4.7 mph /  7.6 km/h 11.3 mph /  18.2 km/h 94 % 0.0 in /  0 mm
10:04 4.2 °F /  -15.4 °C 3.3 °F /  -15.9 °C 1016.1 in /  34405.1 hPa SW 9.7 mph /  15.6 km/h 16.1 mph /  25.9 km/h 94 % 0.0 in /  0 mm
10:10 4.2 °F /  -15.4 °C 3.3 °F /  -15.9 °C 1016.1 in /  34405.1 hPa SW 3.2 mph /  5.1 km/h 17.7 mph /  28.5 km/h 94 % 0.0 in /  0 mm
10:16 4.2 °F /  -15.4 °C 3.3 °F /  -15.9 °C 1016.1 in /  34405.1 hPa SW 16.3 mph /  26.2 km/h 17.7 mph /  28.5 km/h 94 % 0.0 in /  0 mm
10:22 4.3 °F /  -15.4 °C 3.4 °F /  -15.9 °C 1016.1 in /  34405.1 hPa WSW 7.9 mph /  12.7 km/h 22.5 mph /  36.2 km/h 94 % 0.0 in /  0 mm
10:28 4.3 °F /  -15.4 °C 3.4 °F /  -15.9 °C 1016.1 in /  34405.1 hPa West 14.3 mph /  23 km/h 19.3 mph /  31.1 km/h 94 % 0.0 in /  0 mm
10:34 4.4 °F /  -15.3 °C 3.5 °F /  -15.8 °C 1016.1 in /  34405.1 hPa WSW 13.0 mph /  20.9 km/h 19.3 mph /  31.1 km/h 94 % 0.0 in /  0 mm
10:40 4.5 °F /  -15.3 °C 3.6 °F /  -15.8 °C 1016.1 in /  34405.1 hPa SW 11.1 mph /  17.9 km/h 14.5 mph /  23.3 km/h 94 % 0.0 in /  0 mm
10:46 4.6 °F /  -15.2 °C 3.7 °F /  -15.7 °C 1016.1 in /  34405.1 hPa West 7.9 mph /  12.7 km/h 16.1 mph /  25.9 km/h 94 % 0.0 in /  0 mm
10:52 4.7 °F /  -15.2 °C 3.7 °F /  -15.7 °C 1016.1 in /  34405.1 hPa WSW 6.4 mph /  10.3 km/h 14.5 mph /  23.3 km/h 93 % 0.0 in /  0 mm
10:58 4.7 °F /  -15.2 °C 3.7 °F /  -15.7 °C 1016.1 in /  34405.1 hPa WSW 7.9 mph /  12.7 km/h 19.3 mph /  31.1 km/h 93 % 0.0 in /  0 mm
11:04 4.8 °F /  -15.1 °C 3.8 °F /  -15.7 °C 1016.1 in /  34405.1 hPa SW 9.7 mph /  15.6 km/h 24.1 mph /  38.8 km/h 93 % 0.0 in /  0 mm
11:10 4.9 °F /  -15.1 °C 3.9 °F /  -15.6 °C 1016.1 in /  34405.1 hPa WSW 9.7 mph /  15.6 km/h 17.7 mph /  28.5 km/h 93 % 0.0 in /  0 mm
11:16 5.1 °F /  -14.9 °C 4.1 °F /  -15.5 °C 1016.1 in /  34405.1 hPa WSW 7.9 mph /  12.7 km/h 12.9 mph /  20.8 km/h 93 % 0.0 in /  0 mm
11:22 5.1 °F /  -14.9 °C 3.9 °F /  -15.6 °C 1016.1 in /  34405.1 hPa WSW 13.0 mph /  20.9 km/h 19.3 mph /  31.1 km/h 92 % 0.0 in /  0 mm
11:28 5.1 °F /  -14.9 °C 3.8 °F /  -15.7 °C 1016.1 in /  34405.1 hPa WSW 9.7 mph /  15.6 km/h 19.3 mph /  31.1 km/h 91 % 0.0 in /  0 mm
11:35 5.2 °F /  -14.9 °C 4.0 °F /  -15.6 °C 1016.5 in /  34418.7 hPa West 6.4 mph /  10.3 km/h 9.7 mph /  15.6 km/h 92 % 0.0 in /  0 mm
11:41 5.3 °F /  -14.8 °C 4.0 °F /  -15.6 °C 1016.5 in /  34418.7 hPa WSW 7.9 mph /  12.7 km/h 9.7 mph /  15.6 km/h 91 % 0.0 in /  0 mm
11:47 5.3 °F /  -14.8 °C 4.0 °F /  -15.6 °C 1016.5 in /  34418.7 hPa SW 11.1 mph /  17.9 km/h 16.1 mph /  25.9 km/h 91 % 0.0 in /  0 mm
11:53 5.4 °F /  -14.8 °C 4.0 °F /  -15.6 °C 1016.1 in /  34405.1 hPa SW 3.2 mph /  5.1 km/h 16.1 mph /  25.9 km/h 91 % 0.0 in /  0 mm
11:59 5.4 °F /  -14.8 °C 4.0 °F /  -15.6 °C 1016.1 in /  34405.1 hPa WNW 1.4 mph /  2.3 km/h 9.7 mph /  15.6 km/h 91 % 0.0 in /  0 mm
12:05 5.4 °F /  -14.8 °C 3.9 °F /  -15.6 °C 1016.1 in /  34405.1 hPa West 1.4 mph /  2.3 km/h 16.1 mph /  25.9 km/h 90 % 0.0 in /  0 mm
12:11 5.4 °F /  -14.8 °C 3.9 °F /  -15.6 °C 1016.1 in /  34405.1 hPa WSW 3.2 mph /  5.1 km/h 12.9 mph /  20.8 km/h 90 % 0.0 in /  0 mm
12:17 5.5 °F /  -14.7 °C 4.0 °F /  -15.6 °C 1016.1 in /  34405.1 hPa WSW 4.7 mph /  7.6 km/h 11.3 mph /  18.2 km/h 90 % 0.0 in /  0 mm
12:23 5.5 °F /  -14.7 °C 4.0 °F /  -15.6 °C 1016.1 in /  34405.1 hPa West 3.2 mph /  5.1 km/h 14.5 mph /  23.3 km/h 90 % 0.0 in /  0 mm
12:29 5.6 °F /  -14.7 °C 4.1 °F /  -15.5 °C 1016.1 in /  34405.1 hPa WSW 7.9 mph /  12.7 km/h 9.7 mph /  15.6 km/h 90 % 0.0 in /  0 mm
12:35 5.6 °F /  -14.7 °C 4.1 °F /  -15.5 °C 1016.1 in /  34405.1 hPa WSW 6.4 mph /  10.3 km/h 14.5 mph /  23.3 km/h 90 % 0.0 in /  0 mm
12:41 5.6 °F /  -14.7 °C 4.2 °F /  -15.4 °C 1016.1 in /  34405.1 hPa WSW 7.9 mph /  12.7 km/h 8.0 mph /  12.9 km/h 91 % 0.0 in /  0 mm
12:47 5.6 °F /  -14.7 °C 4.2 °F /  -15.4 °C 1016.1 in /  34405.1 hPa WSW 9.7 mph /  15.6 km/h 12.9 mph /  20.8 km/h 91 % 0.0 in /  0 mm
12:53 5.5 °F /  -14.7 °C 4.1 °F /  -15.5 °C 1016.1 in /  34405.1 hPa WNW 9.7 mph /  15.6 km/h 12.9 mph /  20.8 km/h 91 % 0.3 in /  7.62 mm
12:59 5.5 °F /  -14.7 °C 4.1 °F /  -15.5 °C 1016.1 in /  34405.1 hPa WNW 17.7 mph /  28.5 km/h 19.3 mph /  31.1 km/h 91 % 0.5 in /  12.7 mm
13:05 5.4 °F /  -14.8 °C 3.7 °F /  -15.7 °C 1015.8 in /  34395 hPa West 9.7 mph /  15.6 km/h 17.7 mph /  28.5 km/h 89 % 0.5 in /  12.7 mm
13:11 5.4 °F /  -14.8 °C 3.9 °F /  -15.6 °C 1015.8 in /  34395 hPa West 4.7 mph /  7.6 km/h 9.7 mph /  15.6 km/h 90 % 0.5 in /  12.7 mm
13:17 5.4 °F /  -14.8 °C 4.2 °F /  -15.4 °C 1015.8 in /  34395 hPa SW 7.9 mph /  12.7 km/h 14.5 mph /  23.3 km/h 92 % 0.5 in /  12.7 mm
13:23 5.4 °F /  -14.8 °C 4.0 °F /  -15.6 °C 1015.8 in /  34395 hPa West 9.7 mph /  15.6 km/h 17.7 mph /  28.5 km/h 91 % 0.8 in /  20.32 mm
13:29 5.4 °F /  -14.8 °C 4.0 °F /  -15.6 °C 1015.8 in /  34395 hPa West 11.1 mph /  17.9 km/h 14.5 mph /  23.3 km/h 91 % 0.8 in /  20.32 mm
13:35 5.4 °F /  -14.8 °C 3.6 °F /  -15.8 °C 1015.5 in /  34384.8 hPa West 14.3 mph /  23 km/h 20.9 mph /  33.6 km/h 88 % 0.8 in /  20.32 mm
13:41 5.3 °F /  -14.8 °C 3.5 °F /  -15.8 °C 1015.8 in /  34395 hPa West 14.3 mph /  23 km/h 20.9 mph /  33.6 km/h 88 % 1.0 in /  25.4 mm
13:47 5.3 °F /  -14.8 °C 3.6 °F /  -15.8 °C 1015.8 in /  34395 hPa West 11.1 mph /  17.9 km/h 14.5 mph /  23.3 km/h 89 % 1.0 in /  25.4 mm
13:53 5.2 °F /  -14.9 °C 3.5 °F /  -15.8 °C 1015.5 in /  34384.8 hPa WSW 13.0 mph /  20.9 km/h 19.3 mph /  31.1 km/h 89 % 1.0 in /  25.4 mm
13:59 5.2 °F /  -14.9 °C 3.7 °F /  -15.7 °C 1015.5 in /  34384.8 hPa WNW 16.3 mph /  26.2 km/h 17.7 mph /  28.5 km/h 90 % 0.8 in /  20.32 mm
14:05 5.2 °F /  -14.9 °C 3.7 °F /  -15.7 °C 1015.5 in /  34384.8 hPa West 6.4 mph /  10.3 km/h 16.1 mph /  25.9 km/h 90 % 0.5 in /  12.7 mm
14:11 5.3 °F /  -14.8 °C 3.8 °F /  -15.7 °C 1015.5 in /  34384.8 hPa WSW 7.9 mph /  12.7 km/h 19.3 mph /  31.1 km/h 90 % 0.5 in /  12.7 mm
14:17 5.5 °F /  -14.7 °C 4.0 °F /  -15.6 °C 1015.1 in /  34371.3 hPa West 9.7 mph /  15.6 km/h 17.7 mph /  28.5 km/h 90 % 0.5 in /  12.7 mm
14:23 5.7 °F /  -14.6 °C 4.2 °F /  -15.4 °C 1015.1 in /  34371.3 hPa WSW 9.7 mph /  15.6 km/h 14.5 mph /  23.3 km/h 90 % 0.5 in /  12.7 mm
14:29 5.7 °F /  -14.6 °C 3.9 °F /  -15.6 °C 1015.1 in /  34371.3 hPa West 14.3 mph /  23 km/h 24.1 mph /  38.8 km/h 88 % 0.5 in /  12.7 mm
14:35 5.8 °F /  -14.6 °C 4.0 °F /  -15.6 °C 1015.1 in /  34371.3 hPa West 13.0 mph /  20.9 km/h 24.1 mph /  38.8 km/h 88 % 0.5 in /  12.7 mm
14:41 5.8 °F /  -14.6 °C 4.1 °F /  -15.5 °C 1015.1 in /  34371.3 hPa WSW 16.3 mph /  26.2 km/h 19.3 mph /  31.1 km/h 89 % 0.3 in /  7.62 mm
14:47 6.0 °F /  -14.4 °C 4.3 °F /  -15.4 °C 1015.1 in /  34371.3 hPa West 4.7 mph /  7.6 km/h 12.9 mph /  20.8 km/h 89 % 0.3 in /  7.62 mm
14:53 6.0 °F /  -14.4 °C 4.3 °F /  -15.4 °C 1015.1 in /  34371.3 hPa West 6.4 mph /  10.3 km/h 14.5 mph /  23.3 km/h 89 % 0.0 in /  0 mm
14:59 6.0 °F /  -14.4 °C 4.2 °F /  -15.4 °C 1015.1 in /  34371.3 hPa West 9.7 mph /  15.6 km/h 14.5 mph /  23.3 km/h 88 % 0.0 in /  0 mm
15:05 6.0 °F /  -14.4 °C 4.2 °F /  -15.4 °C 1015.5 in /  34384.8 hPa SW 13.0 mph /  20.9 km/h 19.3 mph /  31.1 km/h 88 % 0.0 in /  0 mm
15:11 6.0 °F /  -14.4 °C 4.0 °F /  -15.6 °C 1015.5 in /  34384.8 hPa WNW 14.3 mph /  23 km/h 19.3 mph /  31.1 km/h 87 % 0.0 in /  0 mm
15:17 6.0 °F /  -14.4 °C 4.0 °F /  -15.6 °C 1015.5 in /  34384.8 hPa WNW 11.1 mph /  17.9 km/h 11.3 mph /  18.2 km/h 87 % 0.0 in /  0 mm
15:23 6.1 °F /  -14.4 °C 4.1 °F /  -15.5 °C 1015.5 in /  34384.8 hPa West 4.7 mph /  7.6 km/h 11.3 mph /  18.2 km/h 87 % 0.0 in /  0 mm
15:29 6.1 °F /  -14.4 °C 4.1 °F /  -15.5 °C 1015.1 in /  34371.3 hPa WNW 13.0 mph /  20.9 km/h 14.5 mph /  23.3 km/h 87 % 0.0 in /  0 mm
15:35 6.3 °F /  -14.3 °C 4.1 °F /  -15.5 °C 1015.1 in /  34371.3 hPa West 11.1 mph /  17.9 km/h 14.5 mph /  23.3 km/h 86 % 0.0 in /  0 mm
15:41 6.4 °F /  -14.2 °C 4.1 °F /  -15.5 °C 1015.1 in /  34371.3 hPa West 6.4 mph /  10.3 km/h 20.9 mph /  33.6 km/h 85 % 0.0 in /  0 mm
15:47 6.5 °F /  -14.2 °C 4.2 °F /  -15.4 °C 1015.1 in /  34371.3 hPa West 6.4 mph /  10.3 km/h 14.5 mph /  23.3 km/h 85 % 0.0 in /  0 mm
15:53 6.6 °F /  -14.1 °C 4.1 °F /  -15.5 °C 1015.5 in /  34384.8 hPa WSW 13.0 mph /  20.9 km/h 14.5 mph /  23.3 km/h 84 % 0.0 in /  0 mm
15:59 6.6 °F /  -14.1 °C 3.9 °F /  -15.6 °C 1015.1 in /  34371.3 hPa West 4.7 mph /  7.6 km/h 12.9 mph /  20.8 km/h 83 % 0.0 in /  0 mm
16:05 6.7 °F /  -14.1 °C 4.0 °F /  -15.6 °C 1015.5 in /  34384.8 hPa West 11.1 mph /  17.9 km/h 11.3 mph /  18.2 km/h 83 % 0.0 in /  0 mm
16:11 6.8 °F /  -14 °C 3.9 °F /  -15.6 °C 1015.1 in /  34371.3 hPa WNW 13.0 mph /  20.9 km/h 16.1 mph /  25.9 km/h 82 % 0.0 in /  0 mm
16:17 6.9 °F /  -13.9 °C 4.0 °F /  -15.6 °C 1015.1 in /  34371.3 hPa West 7.9 mph /  12.7 km/h 11.3 mph /  18.2 km/h 82 % 0.0 in /  0 mm
16:23 6.9 °F /  -13.9 °C 3.9 °F /  -15.6 °C 1015.1 in /  34371.3 hPa West 9.7 mph /  15.6 km/h 12.9 mph /  20.8 km/h 81 % 0.0 in /  0 mm
16:29 6.9 °F /  -13.9 °C 3.9 °F /  -15.6 °C 1015.1 in /  34371.3 hPa West 7.9 mph /  12.7 km/h 17.7 mph /  28.5 km/h 81 % 0.0 in /  0 mm
16:35 6.8 °F /  -14 °C 3.6 °F /  -15.8 °C 1015.5 in /  34384.8 hPa WNW 14.3 mph /  23 km/h 19.3 mph /  31.1 km/h 80 % 0.0 in /  0 mm
16:41 6.8 °F /  -14 °C 3.9 °F /  -15.6 °C 1015.5 in /  34384.8 hPa WNW 9.7 mph /  15.6 km/h 12.9 mph /  20.8 km/h 82 % 0.0 in /  0 mm
16:47 6.7 °F /  -14.1 °C 3.8 °F /  -15.7 °C 1015.5 in /  34384.8 hPa West 6.4 mph /  10.3 km/h 12.9 mph /  20.8 km/h 82 % 0.0 in /  0 mm
16:53 6.6 °F /  -14.1 °C 3.7 °F /  -15.7 °C 1015.5 in /  34384.8 hPa West 4.7 mph /  7.6 km/h 14.5 mph /  23.3 km/h 82 % 0.0 in /  0 mm
16:59 6.4 °F /  -14.2 °C 3.6 °F /  -15.8 °C 1015.5 in /  34384.8 hPa WNW 13.0 mph /  20.9 km/h 13.0 mph /  20.9 km/h 82 % 0.0 in /  0 mm
17:05 6.3 °F /  -14.3 °C 3.6 °F /  -15.8 °C 1015.5 in /  34384.8 hPa WNW 13.0 mph /  20.9 km/h 14.5 mph /  23.3 km/h 83 % 0.0 in /  0 mm
17:11 6.1 °F /  -14.4 °C 3.4 °F /  -15.9 °C 1015.5 in /  34384.8 hPa WSW 6.4 mph /  10.3 km/h 8.0 mph /  12.9 km/h 83 % 0.0 in /  0 mm
17:17 5.9 °F /  -14.5 °C 3.4 °F /  -15.9 °C 1015.5 in /  34384.8 hPa WSW 6.4 mph /  10.3 km/h 9.7 mph /  15.6 km/h 84 % 0.0 in /  0 mm
17:23 5.8 °F /  -14.6 °C 3.3 °F /  -15.9 °C 1015.8 in /  34395 hPa WSW 3.2 mph /  5.1 km/h 9.7 mph /  15.6 km/h 84 % 0.0 in /  0 mm
17:29 5.8 °F /  -14.6 °C 3.3 °F /  -15.9 °C 1015.8 in /  34395 hPa West 7.9 mph /  12.7 km/h 8.0 mph /  12.9 km/h 84 % 0.0 in /  0 mm
17:35 5.6 °F /  -14.7 °C 3.1 °F /  -16.1 °C 1015.8 in /  34395 hPa West 3.2 mph /  5.1 km/h 6.4 mph /  10.3 km/h 84 % 0.0 in /  0 mm
17:41 5.5 °F /  -14.7 °C 3.2 °F /  -16 °C 1015.8 in /  34395 hPa WNW 4.7 mph /  7.6 km/h 9.7 mph /  15.6 km/h 85 % 0.0 in /  0 mm
17:47 5.4 °F /  -14.8 °C 3.1 °F /  -16.1 °C 1015.8 in /  34395 hPa WNW 6.4 mph /  10.3 km/h 8.0 mph /  12.9 km/h 85 % 0.0 in /  0 mm
17:53 5.3 °F /  -14.8 °C 3.0 °F /  -16.1 °C 1016.1 in /  34405.1 hPa West 4.7 mph /  7.6 km/h 8.0 mph /  12.9 km/h 85 % 0.0 in /  0 mm
17:59 5.2 °F /  -14.9 °C 3.1 °F /  -16.1 °C 1016.1 in /  34405.1 hPa WSW 4.7 mph /  7.6 km/h 8.0 mph /  12.9 km/h 86 % 0.0 in /  0 mm
18:05 5.1 °F /  -14.9 °C 3.0 °F /  -16.1 °C 1016.1 in /  34405.1 hPa WSW 4.7 mph /  7.6 km/h 9.7 mph /  15.6 km/h 86 % 0.0 in /  0 mm
18:11 5.1 °F /  -14.9 °C 3.0 °F /  -16.1 °C 1016.1 in /  34405.1 hPa West 3.2 mph /  5.1 km/h 6.4 mph /  10.3 km/h 86 % 0.0 in /  0 mm
18:17 4.9 °F /  -15.1 °C 2.9 °F /  -16.2 °C 1016.1 in /  34405.1 hPa West 4.7 mph /  7.6 km/h 8.0 mph /  12.9 km/h 87 % 0.0 in /  0 mm
18:23 4.9 °F /  -15.1 °C 2.8 °F /  -16.2 °C 1016.1 in /  34405.1 hPa West 1.4 mph /  2.3 km/h 8.0 mph /  12.9 km/h 86 % 0.0 in /  0 mm
18:29 4.9 °F /  -15.1 °C 2.9 °F /  -16.2 °C 1016.5 in /  34418.7 hPa WNW 4.7 mph /  7.6 km/h 8.0 mph /  12.9 km/h 87 % 0.0 in /  0 mm
18:35 4.9 °F /  -15.1 °C 2.8 °F /  -16.2 °C 1016.5 in /  34418.7 hPa WNW 4.7 mph /  7.6 km/h 6.4 mph /  10.3 km/h 86 % 0.0 in /  0 mm
18:41 4.8 °F /  -15.1 °C 2.7 °F /  -16.3 °C 1016.8 in /  34428.8 hPa WNW 4.7 mph /  7.6 km/h 6.4 mph /  10.3 km/h 86 % 0.0 in /  0 mm
18:47 4.7 °F /  -15.2 °C 2.6 °F /  -16.3 °C 1016.8 in /  34428.8 hPa WNW 3.2 mph /  5.1 km/h 4.8 mph /  7.7 km/h 86 % 0.0 in /  0 mm
18:53 4.6 °F /  -15.2 °C 2.6 °F /  -16.3 °C 1016.8 in /  34428.8 hPa Calm   4.8 mph /  7.7 km/h 87 % 0.0 in /  0 mm
18:59 4.5 °F /  -15.3 °C 2.5 °F /  -16.4 °C 1016.8 in /  34428.8 hPa West 3.2 mph /  5.1 km/h 3.2 mph /  5.1 km/h 87 % 0.0 in /  0 mm
19:05 4.4 °F /  -15.3 °C 2.6 °F /  -16.3 °C 1016.8 in /  34428.8 hPa West 1.4 mph /  2.3 km/h 4.8 mph /  7.7 km/h 88 % 0.0 in /  0 mm
19:11 4.3 °F /  -15.4 °C 2.5 °F /  -16.4 °C 1016.8 in /  34428.8 hPa West 3.2 mph /  5.1 km/h 4.8 mph /  7.7 km/h 88 % 0.0 in /  0 mm
19:17 4.3 °F /  -15.4 °C 2.5 °F /  -16.4 °C 1016.8 in /  34428.8 hPa WNW 3.2 mph /  5.1 km/h 4.8 mph /  7.7 km/h 88 % 0.0 in /  0 mm
19:23 4.3 °F /  -15.4 °C 2.5 °F /  -16.4 °C 1016.8 in /  34428.8 hPa West 6.4 mph /  10.3 km/h 6.4 mph /  10.3 km/h 88 % 0.0 in /  0 mm
19:29 4.3 °F /  -15.4 °C 2.5 °F /  -16.4 °C 1016.8 in /  34428.8 hPa West 1.4 mph /  2.3 km/h 6.4 mph /  10.3 km/h 88 % 0.0 in /  0 mm
19:35 4.3 °F /  -15.4 °C 2.5 °F /  -16.4 °C 1016.8 in /  34428.8 hPa West 3.2 mph /  5.1 km/h 4.8 mph /  7.7 km/h 88 % 0.0 in /  0 mm
19:41 4.2 °F /  -15.4 °C 2.4 °F /  -16.4 °C 1016.8 in /  34428.8 hPa West 1.4 mph /  2.3 km/h 3.2 mph /  5.1 km/h 88 % 0.0 in /  0 mm
19:47 4.1 °F /  -15.5 °C 2.3 °F /  -16.5 °C 1016.8 in /  34428.8 hPa West 3.2 mph /  5.1 km/h 6.4 mph /  10.3 km/h 88 % 0.0 in /  0 mm
19:53 4.0 °F /  -15.6 °C 2.4 °F /  -16.4 °C 1016.8 in /  34428.8 hPa West 6.4 mph /  10.3 km/h 9.7 mph /  15.6 km/h 89 % 0.0 in /  0 mm
19:59 4.0 °F /  -15.6 °C 2.2 °F /  -16.6 °C 1017.2 in /  34442.4 hPa West 3.2 mph /  5.1 km/h 8.0 mph /  12.9 km/h 88 % 0.0 in /  0 mm
20:06 4.0 °F /  -15.6 °C 2.2 °F /  -16.6 °C 1017.2 in /  34442.4 hPa West 6.4 mph /  10.3 km/h 9.7 mph /  15.6 km/h 88 % 0.0 in /  0 mm
20:11 4.0 °F /  -15.6 °C 2.0 °F /  -16.7 °C 1017.2 in /  34442.4 hPa West 7.9 mph /  12.7 km/h 9.7 mph /  15.6 km/h 87 % 0.0 in /  0 mm
20:17 3.9 °F /  -15.6 °C 1.9 °F /  -16.7 °C 1017.2 in /  34442.4 hPa West 4.7 mph /  7.6 km/h 9.7 mph /  15.6 km/h 87 % 0.0 in /  0 mm
20:23 3.8 °F /  -15.7 °C 1.8 °F /  -16.8 °C 1017.2 in /  34442.4 hPa West 6.4 mph /  10.3 km/h 9.7 mph /  15.6 km/h 87 % 0.0 in /  0 mm
20:30 3.8 °F /  -15.7 °C 1.7 °F /  -16.8 °C 1017.5 in /  34452.6 hPa West 4.7 mph /  7.6 km/h 9.7 mph /  15.6 km/h 86 % 0.0 in /  0 mm
20:35 3.8 °F /  -15.7 °C 1.5 °F /  -16.9 °C 1017.5 in /  34452.6 hPa West 4.7 mph /  7.6 km/h 8.0 mph /  12.9 km/h 85 % 0.0 in /  0 mm
20:42 3.8 °F /  -15.7 °C 1.5 °F /  -16.9 °C 1017.5 in /  34452.6 hPa West 3.2 mph /  5.1 km/h 8.0 mph /  12.9 km/h 85 % 0.0 in /  0 mm
20:48 3.8 °F /  -15.7 °C 1.7 °F /  -16.8 °C 1017.5 in /  34452.6 hPa West 4.7 mph /  7.6 km/h 6.4 mph /  10.3 km/h 86 % 0.0 in /  0 mm
20:54 3.8 °F /  -15.7 °C 1.7 °F /  -16.8 °C 1017.8 in /  34462.7 hPa West 3.2 mph /  5.1 km/h 6.4 mph /  10.3 km/h 86 % 0.0 in /  0 mm
21:00 3.8 °F /  -15.7 °C 1.7 °F /  -16.8 °C 1017.8 in /  34462.7 hPa WSW 1.4 mph /  2.3 km/h 6.4 mph /  10.3 km/h 86 % 0.0 in /  0 mm
21:06 3.8 °F /  -15.7 °C 1.7 °F /  -16.8 °C 1017.8 in /  34462.7 hPa WSW 3.2 mph /  5.1 km/h 6.4 mph /  10.3 km/h 86 % 0.0 in /  0 mm
21:12 3.7 °F /  -15.7 °C 1.7 °F /  -16.8 °C 1017.8 in /  34462.7 hPa SW 3.2 mph /  5.1 km/h 6.4 mph /  10.3 km/h 87 % 0.0 in /  0 mm
21:18 3.6 °F /  -15.8 °C 1.8 °F /  -16.8 °C 1017.8 in /  34462.7 hPa SW 7.9 mph /  12.7 km/h 8.0 mph /  12.9 km/h 88 % 0.0 in /  0 mm
21:24 3.5 °F /  -15.8 °C 1.7 °F /  -16.8 °C 1017.8 in /  34462.7 hPa West 3.2 mph /  5.1 km/h 6.4 mph /  10.3 km/h 88 % 0.0 in /  0 mm
21:30 3.4 °F /  -15.9 °C 1.8 °F /  -16.8 °C 1017.8 in /  34462.7 hPa West 3.2 mph /  5.1 km/h 9.7 mph /  15.6 km/h 89 % 0.0 in /  0 mm
21:36 3.3 °F /  -15.9 °C 1.7 °F /  -16.8 °C 1017.8 in /  34462.7 hPa West 4.7 mph /  7.6 km/h 8.0 mph /  12.9 km/h 89 % 0.0 in /  0 mm
21:42 3.1 °F /  -16.1 °C 1.5 °F /  -16.9 °C 1017.8 in /  34462.7 hPa West 4.7 mph /  7.6 km/h 6.4 mph /  10.3 km/h 89 % 0.0 in /  0 mm
21:48 3.1 °F /  -16.1 °C 1.5 °F /  -16.9 °C 1017.8 in /  34462.7 hPa West 3.2 mph /  5.1 km/h 6.4 mph /  10.3 km/h 89 % 0.0 in /  0 mm
21:54 3.1 °F /  -16.1 °C 1.5 °F /  -16.9 °C 1017.8 in /  34462.7 hPa West 3.2 mph /  5.1 km/h 9.7 mph /  15.6 km/h 89 % 0.0 in /  0 mm
22:00 3.1 °F /  -16.1 °C 1.5 °F /  -16.9 °C 1017.8 in /  34462.7 hPa WSW 6.4 mph /  10.3 km/h 8.0 mph /  12.9 km/h 89 % 0.0 in /  0 mm
22:06 3.1 °F /  -16.1 °C 1.5 °F /  -16.9 °C 1017.8 in /  34462.7 hPa WNW 4.7 mph /  7.6 km/h 9.7 mph /  15.6 km/h 89 % 0.0 in /  0 mm
22:12 3.2 °F /  -16 °C 1.6 °F /  -16.9 °C 1018.2 in /  34476.3 hPa WSW 4.7 mph /  7.6 km/h 9.7 mph /  15.6 km/h 89 % 0.0 in /  0 mm
22:18 3.1 °F /  -16.1 °C 1.5 °F /  -16.9 °C 1018.2 in /  34476.3 hPa WSW 3.2 mph /  5.1 km/h 14.5 mph /  23.3 km/h 89 % 0.0 in /  0 mm
22:24 3.1 °F /  -16.1 °C 1.3 °F /  -17.1 °C 1017.8 in /  34462.7 hPa West 6.4 mph /  10.3 km/h 9.7 mph /  15.6 km/h 88 % 0.0 in /  0 mm
22:30 2.9 °F /  -16.2 °C 1.3 °F /  -17.1 °C 1017.8 in /  34462.7 hPa West 6.4 mph /  10.3 km/h 6.4 mph /  10.3 km/h 89 % 0.0 in /  0 mm
22:36 2.9 °F /  -16.2 °C 1.3 °F /  -17.1 °C 1017.8 in /  34462.7 hPa West 4.7 mph /  7.6 km/h 8.0 mph /  12.9 km/h 89 % 0.0 in /  0 mm
22:42 2.9 °F /  -16.2 °C 1.4 °F /  -17 °C 1018.2 in /  34476.3 hPa WSW 3.2 mph /  5.1 km/h 8.0 mph /  12.9 km/h 90 % 0.0 in /  0 mm
22:48 2.9 °F /  -16.2 °C 1.3 °F /  -17.1 °C 1018.2 in /  34476.3 hPa West 3.2 mph /  5.1 km/h 4.8 mph /  7.7 km/h 89 % 0.0 in /  0 mm
22:54 2.8 °F /  -16.2 °C 1.3 °F /  -17.1 °C 1018.2 in /  34476.3 hPa West 4.7 mph /  7.6 km/h 6.4 mph /  10.3 km/h 90 % 0.0 in /  0 mm
23:00 2.9 °F /  -16.2 °C 1.4 °F /  -17 °C 1018.2 in /  34476.3 hPa WSW 4.7 mph /  7.6 km/h 6.4 mph /  10.3 km/h 90 % 0.0 in /  0 mm
23:06 2.9 °F /  -16.2 °C 1.3 °F /  -17.1 °C 1018.2 in /  34476.3 hPa WSW 1.4 mph /  2.3 km/h 6.4 mph /  10.3 km/h 89 % 0.0 in /  0 mm
23:12 2.9 °F /  -16.2 °C 1.3 °F /  -17.1 °C 1018.2 in /  34476.3 hPa WSW 3.2 mph /  5.1 km/h 4.8 mph /  7.7 km/h 89 % 0.0 in /  0 mm
23:18 3.1 °F /  -16.1 °C 1.5 °F /  -16.9 °C 1018.2 in /  34476.3 hPa SW 6.4 mph /  10.3 km/h 9.7 mph /  15.6 km/h 89 % 0.0 in /  0 mm
23:24 3.2 °F /  -16 °C 1.6 °F /  -16.9 °C 1017.8 in /  34462.7 hPa West 7.9 mph /  12.7 km/h 11.3 mph /  18.2 km/h 89 % 0.0 in /  0 mm
23:30 3.1 °F /  -16.1 °C 1.5 °F /  -16.9 °C 1018.2 in /  34476.3 hPa WSW 9.7 mph /  15.6 km/h 9.7 mph /  15.6 km/h 89 % 0.0 in /  0 mm
23:36 3.1 °F /  -16.1 °C 1.5 °F /  -16.9 °C 1018.2 in /  34476.3 hPa WSW 7.9 mph /  12.7 km/h 12.9 mph /  20.8 km/h 89 % 0.0 in /  0 mm
23:42 3.1 °F /  -16.1 °C 1.6 °F /  -16.9 °C 1018.2 in /  34476.3 hPa SW 6.4 mph /  10.3 km/h 11.3 mph /  18.2 km/h 90 % 0.0 in /  0 mm
23:48 3.1 °F /  -16.1 °C 1.6 °F /  -16.9 °C 1018.2 in /  34476.3 hPa WSW 11.1 mph /  17.9 km/h 12.9 mph /  20.8 km/h 90 % 0.0 in /  0 mm
23:54 3.0 °F /  -16.1 °C 1.4 °F /  -17 °C 1018.2 in /  34476.3 hPa WSW 13.0 mph /  20.9 km/h 13.0 mph /  20.9 km/h 89 % 0.0 in /  0 mm
Meteo18
Compliments of Weather Underground - 4 mb

Script developed by  Jim McMurry - jmcmurry@mwt.net Adapted for the template by  Wim van der Kuil - Leuven-Template.eu

You find our weather info also at:

European Weather Network

Weather Underground

Equipment we use:

Weather-station
Davis Vue

Weather-program
Meteobridge

Weather-server
Raspberry PI 2 B+

Provider
1 and 1

Davis Vue

Meteobridge

Raspberry PI 2 B+

1 and 1